createdAt,value
2022-08-12T00:00:48.475Z,1.45
2022-08-12T00:03:33.870Z,1.70
2022-08-12T00:06:19.241Z,1.80
2022-08-12T00:09:04.735Z,1.70
2022-08-12T00:11:50.405Z,2.15
2022-08-12T00:14:36.678Z,2.15
2022-08-12T00:17:23.334Z,2.38
2022-08-12T00:20:09.611Z,1.60
2022-08-12T00:22:59.009Z,1.73
2022-08-12T00:26:21.875Z,1.67
2022-08-12T00:29:01.527Z,1.70
2022-08-12T00:31:46.641Z,1.80
2022-08-12T00:34:33.048Z,1.90
2022-08-12T00:37:18.343Z,1.83
2022-08-12T00:40:04.697Z,1.75
2022-08-12T00:42:39.067Z,1.88
2022-08-12T00:45:06.175Z,1.70
2022-08-12T00:47:33.700Z,1.80
2022-08-12T00:50:00.389Z,1.83
2022-08-12T00:52:27.203Z,1.70
2022-08-12T00:54:57.287Z,2.13
2022-08-12T00:57:29.044Z,1.77
2022-08-12T01:00:00.297Z,1.60
2022-08-12T01:02:31.877Z,1.70
2022-08-12T01:05:26.517Z,1.65
2022-08-12T01:08:12.223Z,1.90
2022-08-12T01:10:58.729Z,1.90
2022-08-12T01:13:26.095Z,1.80
2022-08-12T01:15:57.141Z,1.67
2022-08-12T01:18:25.269Z,2.00
2022-08-12T01:20:51.910Z,1.70
2022-08-12T01:23:27.760Z,2.08
2022-08-12T01:25:56.598Z,1.75
2022-08-12T01:28:24.508Z,2.28
2022-08-12T01:30:51.334Z,1.80
2022-08-12T01:33:19.413Z,1.88
2022-08-12T01:36:07.874Z,1.65
2022-08-12T01:38:36.539Z,1.80
2022-08-12T01:41:03.949Z,1.98
2022-08-12T01:43:31.318Z,1.90
2022-08-12T01:45:59.557Z,1.77
2022-08-12T01:48:34.967Z,1.70
2022-08-12T01:51:06.539Z,1.77
2022-08-12T01:53:50.205Z,1.70
2022-08-12T01:56:18.825Z,1.70
2022-08-12T01:59:04.600Z,1.73
2022-08-12T02:01:34.518Z,1.98
2022-08-12T02:04:31.187Z,1.75
2022-08-12T02:07:29.291Z,1.80
2022-08-12T02:10:50.672Z,1.80
2022-08-12T02:13:48.388Z,1.75
2022-08-12T02:16:36.358Z,2.17
2022-08-12T02:19:22.905Z,1.98
2022-08-12T02:22:05.341Z,1.90
2022-08-12T02:24:32.678Z,1.80
2022-08-12T02:26:59.723Z,1.80
2022-08-12T02:29:26.584Z,2.55
2022-08-12T02:31:53.828Z,1.77
2022-08-12T02:34:23.072Z,1.90
2022-08-12T02:36:54.173Z,1.88
2022-08-12T02:39:22.840Z,1.90
2022-08-12T02:41:52.206Z,2.22
2022-08-12T02:44:19.900Z,1.90
2022-08-12T02:46:49.621Z,2.00
2022-08-12T02:49:23.287Z,1.95
2022-08-12T02:51:50.300Z,1.77
2022-08-12T02:54:17.343Z,1.90
2022-08-12T02:56:50.311Z,1.88
2022-08-12T02:59:19.671Z,1.70
2022-08-12T03:01:47.966Z,2.17
2022-08-12T03:04:22.685Z,1.90
2022-08-12T03:07:09.085Z,1.70
2022-08-12T03:10:03.854Z,2.30
2022-08-12T03:12:26.302Z,2.00
2022-08-12T03:15:01.541Z,2.17
2022-08-12T03:17:30.257Z,1.90
2022-08-12T03:20:10.045Z,1.92
2022-08-12T03:22:40.646Z,1.60
2022-08-12T03:25:12.345Z,1.90
2022-08-12T03:27:47.448Z,2.00
2022-08-12T03:30:14.226Z,1.88
2022-08-12T03:32:42.113Z,1.98
2022-08-12T03:35:36.879Z,2.00
2022-08-12T03:38:05.602Z,1.73
2022-08-12T03:40:58.576Z,1.70
2022-08-12T03:43:46.510Z,2.05
2022-08-12T03:46:46.689Z,2.33
2022-08-12T03:49:31.969Z,1.90
2022-08-12T03:52:17.369Z,1.83
2022-08-12T03:55:02.710Z,1.80
2022-08-12T03:57:48.719Z,2.20
2022-08-12T04:00:25.074Z,1.75
2022-08-12T04:03:24.311Z,1.90
2022-08-12T04:05:55.813Z,1.90
2022-08-12T04:08:25.195Z,1.70
2022-08-12T04:11:11.366Z,2.03
2022-08-12T04:13:38.021Z,2.00
2022-08-12T04:16:06.605Z,1.95
2022-08-12T04:18:33.460Z,2.00
2022-08-12T04:21:01.608Z,2.35
2022-08-12T04:23:28.775Z,1.77
2022-08-12T04:25:55.375Z,2.20
2022-08-12T04:28:26.135Z,2.30
2022-08-12T04:30:52.856Z,2.10
2022-08-12T04:33:19.595Z,2.13
2022-08-12T04:35:47.154Z,1.90
2022-08-12T04:38:13.969Z,2.20
2022-08-12T04:40:40.736Z,1.67
2022-08-12T04:43:54.553Z,1.80
2022-08-12T04:45:54.169Z,1.80
2022-08-12T04:48:20.873Z,1.92
2022-08-12T04:50:47.715Z,1.85
2022-08-12T04:53:14.498Z,1.90
2022-08-12T04:55:42.805Z,1.92
2022-08-12T04:58:10.168Z,1.80
2022-08-12T05:00:38.164Z,1.88
2022-08-12T05:03:06.101Z,2.05
2022-08-12T05:05:36.157Z,1.90
2022-08-12T05:08:03.803Z,1.80
2022-08-12T05:10:33.451Z,2.08
2022-08-12T05:13:03.097Z,2.08
2022-08-12T05:15:30.444Z,2.10
2022-08-12T05:18:00.063Z,2.30
2022-08-12T05:20:29.768Z,2.35
2022-08-12T05:23:13.120Z,2.05
2022-08-12T05:25:44.415Z,2.28
2022-08-12T05:28:12.956Z,1.83
2022-08-12T05:30:41.429Z,2.15
2022-08-12T05:33:08.146Z,2.00
2022-08-12T05:35:41.784Z,2.28
2022-08-12T05:38:34.365Z,2.22
2022-08-12T05:41:01.774Z,2.40
2022-08-12T05:43:29.003Z,1.83
2022-08-12T05:45:55.774Z,2.15
2022-08-12T05:48:22.557Z,1.90
2022-08-12T05:50:49.363Z,2.25
2022-08-12T05:53:16.340Z,2.30
2022-08-12T05:55:42.956Z,1.90
2022-08-12T05:58:09.702Z,2.17
2022-08-12T06:00:37.107Z,2.13
2022-08-12T06:03:04.805Z,2.08
2022-08-12T06:05:43.038Z,2.30
2022-08-12T06:08:21.387Z,2.20
2022-08-12T06:10:50.275Z,2.30
2022-08-12T06:13:28.460Z,2.30
2022-08-12T06:16:09.868Z,1.73
2022-08-12T06:18:40.101Z,2.10
2022-08-12T06:21:07.732Z,2.15
2022-08-12T06:23:38.117Z,2.20
2022-08-12T06:26:11.551Z,2.10
2022-08-12T06:28:51.106Z,2.00
2022-08-12T06:31:26.340Z,2.25
2022-08-12T06:35:21.220Z,2.42
2022-08-12T06:36:41.882Z,2.60
2022-08-12T06:39:14.594Z,2.22
2022-08-12T06:42:10.742Z,2.38
2022-08-12T06:44:47.032Z,2.20
2022-08-12T06:47:16.536Z,2.10
2022-08-12T06:49:44.457Z,2.08
2022-08-12T06:52:11.379Z,2.40
2022-08-12T06:54:38.221Z,2.20
2022-08-12T06:58:08.090Z,2.42
2022-08-12T06:59:51.591Z,1.85
2022-08-12T07:02:20.580Z,2.22
2022-08-12T07:04:47.543Z,2.40
2022-08-12T07:07:14.200Z,2.10
2022-08-12T07:10:04.628Z,2.20
2022-08-12T07:12:29.314Z,2.00
2022-08-12T07:14:59.783Z,2.17
2022-08-12T07:17:36.295Z,2.28
2022-08-12T07:20:09.892Z,2.13
2022-08-12T07:22:47.600Z,2.10
2022-08-12T07:25:40.436Z,2.08
2022-08-12T07:28:16.669Z,2.17
2022-08-12T07:30:45.046Z,2.50
2022-08-12T07:33:12.815Z,1.88
2022-08-12T07:35:45.344Z,1.90
2022-08-12T07:38:29.766Z,1.92
2022-08-12T07:40:58.901Z,2.83
2022-08-12T07:43:26.627Z,2.50
2022-08-12T07:45:54.231Z,2.30
2022-08-12T07:48:22.075Z,2.22
2022-08-12T07:50:48.774Z,2.55
2022-08-12T07:53:15.501Z,2.28
2022-08-12T07:55:42.240Z,2.30
2022-08-12T07:58:08.974Z,2.10
2022-08-12T08:00:37.578Z,1.95
2022-08-12T08:03:04.317Z,1.73
2022-08-12T08:05:50.577Z,2.00
2022-08-12T08:08:18.352Z,2.28
2022-08-12T08:10:45.395Z,2.20
2022-08-12T08:13:12.546Z,2.28
2022-08-12T08:16:01.876Z,1.85
2022-08-12T08:18:27.826Z,1.95
2022-08-12T08:20:55.391Z,2.00
2022-08-12T08:23:22.222Z,2.08
2022-08-12T08:25:56.495Z,2.15
2022-08-12T08:28:23.182Z,2.13
2022-08-12T08:30:50.536Z,2.10
2022-08-12T08:33:23.515Z,1.90
2022-08-12T08:36:07.636Z,1.75
2022-08-12T08:38:58.079Z,2.25
2022-08-12T08:42:18.108Z,1.80
2022-08-12T08:44:31.190Z,1.75
2022-08-12T08:46:58.023Z,2.08
2022-08-12T08:49:25.077Z,1.70
2022-08-12T08:51:52.484Z,1.75
2022-08-12T08:54:19.182Z,1.90
2022-08-12T08:56:54.831Z,1.80
2022-08-12T08:59:22.401Z,2.03
2022-08-12T09:01:49.186Z,1.70
2022-08-12T09:05:11.503Z,1.55
2022-08-12T09:07:17.625Z,1.60
2022-08-12T09:10:02.714Z,1.90
2022-08-12T09:12:54.553Z,1.90
2022-08-12T09:15:22.458Z,1.90
2022-08-12T09:18:02.902Z,1.27
2022-08-12T09:20:30.451Z,1.50
2022-08-12T09:22:57.700Z,1.60
2022-08-12T09:25:33.581Z,1.65
2022-08-12T09:28:18.087Z,1.48
2022-08-12T09:30:52.387Z,1.58
2022-08-12T09:34:26.771Z,1.92
2022-08-12T09:36:06.373Z,1.58
2022-08-12T09:38:35.378Z,1.60
2022-08-12T09:42:34.060Z,1.75
2022-08-12T09:44:37.932Z,1.63
2022-08-12T09:46:55.991Z,1.52
2022-08-12T09:49:24.961Z,1.35
2022-08-12T09:51:55.369Z,1.60
2022-08-12T09:54:33.900Z,1.55
2022-08-12T09:58:08.110Z,1.63
2022-08-12T10:00:17.092Z,1.67
2022-08-12T10:03:00.835Z,1.60
2022-08-12T10:06:26.982Z,1.40
2022-08-12T10:08:16.652Z,1.50
2022-08-12T10:11:06.085Z,3.28
2022-08-12T10:13:43.072Z,1.65
2022-08-12T10:16:21.962Z,1.40
2022-08-12T10:18:52.849Z,1.90
2022-08-12T10:21:21.272Z,1.40
2022-08-12T10:23:51.513Z,1.48
2022-08-12T10:26:40.871Z,1.50
2022-08-12T10:30:03.908Z,1.50
2022-08-12T10:32:45.540Z,1.63
2022-08-12T10:35:07.568Z,1.63
2022-08-12T10:38:32.297Z,1.30
2022-08-12T10:40:28.647Z,1.50
2022-08-12T10:43:16.605Z,1.48
2022-08-12T10:45:44.019Z,1.50
2022-08-12T10:48:21.167Z,1.63
2022-08-12T10:51:02.504Z,1.70
2022-08-12T10:53:45.883Z,1.40
2022-08-12T10:56:17.221Z,1.77
2022-08-12T10:58:46.826Z,1.77
2022-08-12T11:01:25.955Z,1.52
2022-08-12T11:04:35.707Z,1.50
2022-08-12T11:07:08.082Z,1.05
2022-08-12T11:09:41.743Z,1.30
2022-08-12T11:12:56.674Z,1.40
2022-08-12T11:15:19.107Z,1.45
2022-08-12T11:17:54.039Z,1.30
2022-08-12T11:20:30.927Z,1.38
2022-08-12T11:23:25.344Z,1.30
2022-08-12T11:25:57.820Z,1.48
2022-08-12T11:28:33.794Z,1.23
2022-08-12T11:31:01.738Z,1.08
2022-08-12T11:34:06.372Z,1.55
2022-08-12T11:36:15.596Z,1.20
2022-08-12T11:38:42.303Z,1.25
2022-08-12T11:41:09.711Z,1.30
2022-08-12T11:43:50.294Z,1.10
2022-08-12T11:46:23.051Z,1.10
2022-08-12T11:48:51.118Z,1.20
2022-08-12T11:51:20.810Z,1.02
2022-08-12T11:53:59.965Z,1.27
2022-08-12T11:56:38.873Z,1.20
2022-08-12T12:02:00.985Z,1.50
2022-08-12T12:04:30.027Z,1.38
2022-08-12T12:07:07.275Z,1.10
2022-08-12T12:09:52.878Z,1.10
2022-08-12T12:12:21.592Z,1.20
2022-08-12T12:14:54.512Z,1.40
2022-08-12T12:17:21.982Z,1.10
2022-08-12T12:19:48.890Z,1.45
2022-08-12T12:22:15.621Z,1.40
2022-08-12T12:24:45.410Z,1.55
2022-08-12T12:27:12.139Z,1.65
2022-08-12T12:30:18.173Z,1.30
2022-08-12T12:32:31.662Z,1.38
2022-08-12T12:35:13.848Z,1.52
2022-08-12T12:38:03.615Z,1.20
2022-08-12T12:40:33.554Z,1.30
2022-08-12T12:43:05.238Z,1.33
2022-08-12T12:45:33.826Z,1.25
2022-08-12T12:48:05.398Z,1.48
2022-08-12T12:50:35.197Z,1.00
2022-08-12T12:53:03.501Z,1.30
2022-08-12T12:55:35.603Z,1.30
2022-08-12T12:58:04.876Z,1.33
2022-08-12T13:00:32.866Z,1.27
2022-08-12T13:03:00.226Z,1.15
2022-08-12T13:05:42.591Z,1.40
2022-08-12T13:08:28.230Z,1.60
2022-08-12T13:11:04.232Z,1.30
2022-08-12T13:14:07.133Z,1.38
2022-08-12T13:16:21.645Z,1.00
2022-08-12T13:18:51.997Z,1.27
2022-08-12T13:21:32.850Z,1.30
2022-08-12T13:24:02.644Z,1.05
2022-08-12T13:26:40.004Z,1.10
2022-08-12T13:29:11.199Z,1.20
2022-08-12T13:31:46.526Z,1.10
2022-08-12T13:34:33.517Z,1.17
2022-08-12T13:37:04.475Z,1.55
2022-08-12T13:39:35.966Z,1.13
2022-08-12T13:42:02.657Z,1.40
2022-08-12T13:44:30.253Z,0.90
2022-08-12T13:46:58.379Z,1.20
2022-08-12T13:49:53.817Z,1.00
2022-08-12T13:52:14.312Z,1.05
2022-08-12T13:54:40.959Z,1.20
2022-08-12T13:57:11.181Z,1.33
2022-08-12T13:59:48.137Z,1.45
2022-08-12T14:02:16.591Z,1.40
2022-08-12T14:04:45.521Z,1.00
2022-08-12T14:07:25.975Z,1.35
2022-08-12T14:10:16.146Z,1.20
2022-08-12T14:12:54.172Z,1.20
2022-08-12T14:15:37.047Z,1.40
2022-08-12T14:18:07.703Z,1.30
2022-08-12T14:20:34.430Z,1.30
2022-08-12T14:24:01.107Z,1.48
2022-08-12T14:25:48.632Z,1.15
2022-08-12T14:28:19.122Z,1.17
2022-08-12T14:31:02.601Z,1.20
2022-08-12T14:33:31.366Z,1.20
2022-08-12T14:36:11.872Z,1.30
2022-08-12T14:38:44.258Z,1.20
2022-08-12T14:41:13.221Z,1.20
2022-08-12T14:43:58.982Z,1.00
2022-08-12T14:46:29.318Z,1.20
2022-08-12T14:48:55.957Z,1.20
2022-08-12T14:52:43.471Z,1.25
2022-08-12T14:56:59.444Z,1.73
2022-08-12T14:57:20.764Z,1.00
2022-08-12T15:00:03.484Z,1.38
2022-08-12T15:02:30.238Z,1.02
2022-08-12T15:04:59.784Z,1.25
2022-08-12T15:07:34.017Z,1.30
2022-08-12T15:10:31.325Z,1.40
2022-08-12T15:12:59.384Z,1.20
2022-08-12T15:15:26.122Z,1.10
2022-08-12T15:17:59.688Z,1.30
2022-08-12T15:20:37.953Z,1.20
2022-08-12T15:23:05.878Z,1.27
2022-08-12T15:25:47.730Z,1.50
2022-08-12T15:28:20.768Z,1.48
2022-08-12T15:30:52.162Z,1.13
2022-08-12T15:33:21.178Z,1.30
2022-08-12T15:35:53.383Z,1.20
2022-08-12T15:38:22.420Z,1.20
2022-08-12T15:40:54.924Z,1.00
2022-08-12T15:43:35.612Z,1.10
2022-08-12T15:46:15.816Z,1.02
2022-08-12T15:48:46.660Z,1.10
2022-08-12T15:51:57.655Z,1.10
2022-08-12T15:54:33.197Z,1.13
2022-08-12T15:57:03.326Z,1.10
2022-08-12T15:59:51.248Z,1.10
2022-08-12T16:02:18.485Z,1.15
2022-08-12T16:04:50.589Z,1.20
2022-08-12T16:07:21.734Z,1.20
2022-08-12T16:10:05.067Z,1.25
2022-08-12T16:12:37.236Z,1.02
2022-08-12T16:15:06.372Z,1.00
2022-08-12T16:18:17.780Z,1.33
2022-08-12T16:20:33.279Z,1.05
2022-08-12T16:23:04.105Z,1.20
2022-08-12T16:26:00.037Z,1.35
2022-08-12T16:28:18.147Z,1.30
2022-08-12T16:30:49.931Z,1.02
2022-08-12T16:33:17.970Z,1.50
2022-08-12T16:35:45.669Z,1.23
2022-08-12T16:38:25.337Z,1.30
2022-08-12T16:40:54.874Z,1.20
2022-08-12T16:43:25.201Z,1.17
2022-08-12T16:46:05.482Z,1.25
2022-08-12T16:48:44.467Z,1.10
2022-08-12T16:51:13.384Z,1.30
2022-08-12T16:53:44.007Z,4.05
2022-08-12T16:56:12.589Z,1.58
2022-08-12T16:58:43.515Z,2.40
2022-08-12T17:01:14.012Z,1.73
2022-08-12T17:03:52.204Z,1.73
2022-08-12T17:06:27.534Z,1.63
2022-08-12T17:09:02.718Z,1.60
2022-08-12T17:11:33.371Z,2.05
2022-08-12T17:14:01.753Z,1.70
2022-08-12T17:16:29.910Z,1.38
2022-08-12T17:19:03.055Z,1.40
2022-08-12T17:21:41.654Z,1.40
2022-08-12T17:24:30.285Z,1.20
2022-08-12T17:26:58.687Z,1.20
2022-08-12T17:30:00.623Z,1.50
2022-08-12T17:32:14.427Z,0.90
2022-08-12T17:35:11.009Z,0.98
2022-08-12T17:37:38.249Z,1.00
2022-08-12T17:40:15.690Z,1.10
2022-08-12T17:42:43.664Z,1.00
2022-08-12T17:45:19.373Z,1.52
2022-08-12T17:48:01.482Z,1.00
2022-08-12T17:50:29.784Z,0.90
2022-08-12T17:53:02.758Z,1.20
2022-08-12T17:55:40.866Z,1.10
2022-08-12T17:58:17.641Z,1.10
2022-08-12T18:00:46.301Z,1.20
2022-08-12T18:04:05.538Z,1.15
2022-08-12T18:06:13.671Z,0.93
2022-08-12T18:08:48.850Z,1.55
2022-08-12T18:12:06.496Z,1.05
2022-08-12T18:14:28.714Z,0.90
2022-08-12T18:16:56.987Z,1.10
2022-08-12T18:19:26.742Z,1.00
2022-08-12T18:22:13.442Z,0.73
2022-08-12T18:24:40.375Z,0.90
2022-08-12T18:27:29.759Z,1.20
2022-08-12T18:29:54.478Z,1.02
2022-08-12T18:32:43.895Z,0.82
2022-08-12T18:35:12.525Z,0.80
2022-08-12T18:37:42.624Z,0.80
2022-08-12T18:40:28.258Z,1.10
2022-08-12T18:42:55.148Z,1.15
2022-08-12T18:45:31.481Z,0.70
2022-08-12T18:48:13.598Z,0.77
2022-08-12T18:50:49.276Z,0.80
2022-08-12T18:54:04.893Z,0.93
2022-08-12T18:56:04.940Z,0.93
2022-08-12T18:58:37.469Z,1.05
2022-08-12T19:01:08.540Z,0.80
2022-08-12T19:03:39.852Z,0.77
2022-08-12T19:06:07.143Z,0.80
2022-08-12T19:08:36.841Z,0.95
2022-08-12T19:11:24.251Z,0.90
2022-08-12T19:14:12.082Z,0.70
2022-08-12T19:16:41.754Z,1.00
2022-08-12T19:19:09.661Z,1.00
2022-08-12T19:21:39.391Z,1.00
2022-08-12T19:24:25.402Z,0.68
2022-08-12T19:26:57.300Z,0.90
2022-08-12T19:29:24.653Z,1.17
2022-08-12T19:31:57.582Z,0.90
2022-08-12T19:37:17.384Z,1.15
2022-08-12T19:40:09.824Z,1.10
2022-08-12T19:42:32.973Z,1.00
2022-08-12T19:45:04.559Z,0.80
2022-08-12T19:47:39.061Z,1.30
2022-08-12T19:50:06.745Z,0.75
2022-08-12T19:52:33.781Z,1.00
2022-08-12T19:55:01.547Z,0.90
2022-08-12T19:57:29.468Z,1.55
2022-08-12T20:00:03.744Z,1.15
2022-08-12T20:02:34.527Z,0.90
2022-08-12T20:06:05.327Z,0.93
2022-08-12T20:07:58.952Z,1.15
2022-08-12T20:10:35.254Z,0.98
2022-08-12T20:13:19.001Z,1.25
2022-08-12T20:15:59.520Z,1.35
2022-08-12T20:18:53.451Z,1.08
2022-08-12T20:21:16.110Z,1.17
2022-08-12T20:23:59.752Z,0.80
2022-08-12T20:26:27.283Z,0.93
2022-08-12T20:28:54.844Z,1.10
2022-08-12T20:31:21.605Z,1.00
2022-08-12T20:33:50.520Z,1.20
2022-08-12T20:36:42.824Z,0.85
2022-08-12T20:39:33.986Z,0.85
2022-08-12T20:42:06.166Z,1.15
2022-08-12T20:44:36.393Z,1.10
2022-08-12T20:47:17.809Z,0.90
2022-08-12T20:49:45.431Z,1.20
2022-08-12T20:52:13.309Z,1.40
2022-08-12T20:54:48.409Z,1.10
2022-08-12T20:57:15.098Z,0.98
2022-08-12T20:59:49.395Z,0.95
2022-08-12T21:02:18.717Z,1.20
2022-08-12T21:05:10.913Z,1.02
2022-08-12T21:07:51.681Z,1.00
2022-08-12T21:10:20.868Z,0.98
2022-08-12T21:12:48.062Z,0.98
2022-08-12T21:15:23.944Z,0.95
2022-08-12T21:18:11.821Z,1.05
2022-08-12T21:20:50.146Z,1.00
2022-08-12T21:23:19.125Z,0.90
2022-08-12T21:25:46.475Z,1.00
2022-08-12T21:28:14.371Z,0.90
2022-08-12T21:31:11.298Z,0.98
2022-08-12T21:33:31.699Z,0.90
2022-08-12T21:36:02.536Z,1.00
2022-08-12T21:38:34.382Z,1.00
2022-08-12T21:41:06.707Z,1.10
2022-08-12T21:43:44.490Z,1.08
2022-08-12T21:46:34.570Z,1.02
2022-08-12T21:49:04.841Z,0.90
2022-08-12T21:51:49.751Z,1.08
2022-08-12T21:54:24.450Z,0.80
2022-08-12T21:56:54.030Z,0.80
2022-08-12T21:59:21.762Z,1.25
2022-08-12T22:01:49.669Z,1.00
2022-08-12T22:04:36.405Z,1.00
2022-08-12T22:07:03.778Z,0.90
2022-08-12T22:09:43.060Z,0.80
2022-08-12T22:12:29.389Z,1.02
2022-08-12T22:14:56.354Z,0.88
2022-08-12T22:17:33.902Z,0.90
2022-08-12T22:20:17.625Z,1.23
2022-08-12T22:22:55.921Z,1.00
2022-08-12T22:25:24.255Z,0.95
2022-08-12T22:28:12.175Z,1.20
2022-08-12T22:30:57.514Z,1.00
2022-08-12T22:33:24.690Z,0.90
2022-08-12T22:35:59.698Z,0.82
2022-08-12T22:38:29.287Z,1.00
2022-08-12T22:41:01.757Z,1.00
2022-08-12T22:44:01.157Z,0.93
2022-08-12T22:46:37.385Z,1.15
2022-08-12T22:49:06.428Z,1.20
2022-08-12T22:52:00.237Z,0.80
2022-08-12T22:54:35.257Z,1.05
2022-08-12T22:57:03.460Z,1.02
2022-08-12T22:59:51.082Z,1.02
2022-08-12T23:02:17.732Z,1.20
2022-08-12T23:04:56.412Z,1.13
2022-08-12T23:07:24.339Z,1.42
2022-08-12T23:09:51.676Z,1.38
2022-08-12T23:12:46.463Z,0.90
2022-08-12T23:15:13.845Z,0.90
2022-08-12T23:17:41.786Z,0.75
2022-08-12T23:20:11.084Z,0.80
2022-08-12T23:22:38.246Z,0.93
2022-08-12T23:25:05.268Z,1.05
2022-08-12T23:27:56.049Z,0.95
2022-08-12T23:30:31.771Z,1.00
2022-08-12T23:33:01.876Z,0.88
2022-08-12T23:35:53.614Z,1.00
2022-08-12T23:38:28.956Z,0.80
2022-08-12T23:40:59.766Z,0.90
2022-08-12T23:43:26.654Z,1.45
2022-08-12T23:46:08.752Z,0.77
2022-08-12T23:48:35.787Z,1.35
2022-08-12T23:51:22.331Z,1.10
2022-08-12T23:53:59.705Z,0.90
2022-08-12T23:56:27.405Z,0.90
2022-08-12T23:58:57.441Z,0.93
